Time;durP1;ratioP1;P1;durP2;ratioP2;P2;SDS_P1;SDS_P2;PMS_P1;PMS_P2;Temp;Humidity;BMP_temperature;BMP_pressure;BME280_temperature;BME280_humidity;BME280_pressure;Samples;Min_cycle;Max_cycle;Signal;HPM_P1;HPM_P2
2024/04/20 00:04:08;;;;;;;;;;;4.50;99.90;;;;;;22699496;26;19928;-75
2024/04/20 00:14:09;;;;;;;;;;;4.20;99.90;;;;;;22697459;26;19927;-75
2024/04/20 00:24:09;;;;;;;;;;;4.00;99.90;;;;;;22697310;26;19939;-74
2024/04/20 00:34:10;;;;;;;;;;;3.80;99.90;;;;;;22709840;26;19939;-74
2024/04/20 00:44:11;;;;;;;;;;;3.60;99.90;;;;;;22696047;26;19928;-74
2024/04/20 00:54:11;;;;;;;;;;;3.40;99.90;;;;;;22706743;26;20370;-75
2024/04/20 01:04:12;;;;;;;;;;;3.40;99.90;;;;;;22707821;26;19928;-75
2024/04/20 01:14:13;;;;;;;;;;;3.70;99.90;;;;;;22716723;26;19935;-75
2024/04/20 01:24:15;;;;;;;;;;;3.80;99.90;;;;;;22712561;26;19936;-74
2024/04/20 01:34:15;;;;;;;;;;;3.80;99.90;;;;;;22709923;26;20274;-74
2024/04/20 01:44:16;;;;;;;;;;;3.50;99.90;;;;;;22708275;26;19940;-74
2024/04/20 01:54:16;;;;;;;;;;;3.60;99.90;;;;;;22706234;26;19928;-74
2024/04/20 02:04:17;;;;;;;;;;;3.40;99.90;;;;;;22706044;26;19928;-74
2024/04/20 02:14:18;;;;;;;;;;;3.30;99.90;;;;;;22705941;26;19928;-74
2024/04/20 02:24:18;;;;;;;;;;;3.20;99.90;;;;;;22718300;26;19934;-74
2024/04/20 02:34:19;;;;;;;;;;;3.50;99.90;;;;;;22710816;26;19964;-74
2024/04/20 02:44:20;;;;;;;;;;;3.60;99.90;;;;;;22716891;26;20329;-74
2024/04/20 02:54:20;;;;;;;;;;;3.60;99.90;;;;;;22717594;26;19928;-74
2024/04/20 03:04:21;;;;;;;;;;;3.50;99.90;;;;;;22719222;26;19928;-74
2024/04/20 03:14:23;;;;;;;;;;;3.70;99.90;;;;;;22687298;26;20224;-74
2024/04/20 03:24:24;;;;;;;;;;;3.80;99.90;;;;;;22715357;26;19928;-74
2024/04/20 03:34:24;;;;;;;;;;;3.80;99.90;;;;;;22714189;26;19928;-74
2024/04/20 03:44:25;;;;;;;;;;;3.80;99.90;;;;;;22687164;26;19928;-74
2024/04/20 03:54:26;;;;;;;;;;;3.90;99.90;;;;;;22726385;26;19934;-74
2024/04/20 04:04:26;;;;;;;;;;;4.00;99.90;;;;;;22712598;26;19935;-74
2024/04/20 04:14:27;;;;;;;;;;;3.80;99.90;;;;;;22725730;26;19935;-74
2024/04/20 04:24:27;;;;;;;;;;;3.50;99.90;;;;;;22708869;26;19936;-74
2024/04/20 04:34:28;;;;;;;;;;;3.50;99.90;;;;;;22707268;26;19936;-74
2024/04/20 04:44:29;;;;;;;;;;;3.50;99.90;;;;;;22710430;26;19932;-74
2024/04/20 04:54:29;;;;;;;;;;;3.40;99.90;;;;;;22724658;26;19997;-74
2024/04/20 05:04:30;;;;;;;;;;;3.60;99.90;;;;;;22723244;26;20013;-75
2024/04/20 05:14:31;;;;;;;;;;;3.80;99.90;;;;;;22727093;26;19928;-74
2024/04/20 05:24:32;;;;;;;;;;;3.80;99.90;;;;;;22722412;26;19935;-74
2024/04/20 05:34:32;;;;;;;;;;;4.20;99.90;;;;;;22716252;26;19980;-75
2024/04/20 05:44:33;;;;;;;;;;;4.40;99.90;;;;;;22708500;26;20445;-74
2024/04/20 05:54:34;;;;;;;;;;;4.30;99.90;;;;;;22692588;26;20010;-74
2024/04/20 06:04:34;;;;;;;;;;;4.30;99.90;;;;;;22677164;26;20609;-75
2024/04/20 06:14:35;;;;;;;;;;;4.40;99.90;;;;;;22733921;26;20355;-75
2024/04/20 06:24:37;;;;;;;;;;;4.50;99.90;;;;;;22718741;26;19935;-75
2024/04/20 06:34:37;;;;;;;;;;;4.70;99.90;;;;;;22870650;26;19939;-75
2024/04/20 06:44:38;;;;;;;;;;;4.70;99.90;;;;;;22825752;26;19935;-74
2024/04/20 06:54:39;;;;;;;;;;;4.80;99.90;;;;;;22746264;26;19928;-74
2024/04/20 07:04:40;;;;;;;;;;;5.00;99.90;;;;;;22715489;26;19928;-75
2024/04/20 07:14:40;;;;;;;;;;;5.10;99.90;;;;;;22712979;26;19954;-75
2024/04/20 07:24:41;;;;;;;;;;;5.10;99.90;;;;;;22821713;26;19928;-74
2024/04/20 07:34:42;;;;;;;;;;;5.00;99.90;;;;;;22864417;26;19941;-75
2024/04/20 07:44:42;;;;;;;;;;;5.00;99.90;;;;;;22743020;26;19935;-75
2024/04/20 07:54:43;;;;;;;;;;;4.90;99.90;;;;;;22864765;26;20030;-77
2024/04/20 08:04:44;;;;;;;;;;;5.00;99.90;;;;;;22863319;26;19928;-76
2024/04/20 08:14:44;;;;;;;;;;;5.50;99.90;;;;;;22726923;26;20278;-74
2024/04/20 08:24:45;;;;;;;;;;;5.60;99.90;;;;;;22829083;26;19938;-76
2024/04/20 08:34:46;;;;;;;;;;;5.90;99.90;;;;;;22829343;26;19995;-74
2024/04/20 08:44:48;;;;;;;;;;;6.10;99.90;;;;;;22858235;26;19927;-75
2024/04/20 08:54:51;;;;;;;;;;;6.00;99.90;;;;;;22709611;26;19935;-75
2024/04/20 09:04:54;;;;;;;;;;;5.90;99.90;;;;;;22708279;26;19951;-74
2024/04/20 09:14:57;;;;;;;;;;;6.30;99.90;;;;;;22707563;26;19931;-74
2024/04/20 09:25:05;;;;;;;;;;;7.10;99.90;;;;;;22712899;26;19940;-75
2024/04/20 09:35:06;;;;;;;;;;;7.20;99.90;;;;;;22715277;26;19927;-75
2024/04/20 09:45:08;;;;;;;;;;;7.20;99.90;;;;;;22803692;26;19928;-75
2024/04/20 09:55:14;;;;;;;;;;;9.00;99.90;;;;;;22840675;26;19943;-75
2024/04/20 10:05:15;;;;;;;;;;;9.00;99.90;;;;;;22794829;26;19970;-75
2024/04/20 10:15:16;;;;;;;;;;;8.50;99.90;;;;;;22826281;26;20390;-76
2024/04/20 10:25:16;;;;;;;;;;;8.00;99.90;;;;;;22872027;26;19947;-74
2024/04/20 10:35:20;;;;;;;;;;;8.30;99.90;;;;;;22873142;26;19938;-76
2024/04/20 10:45:21;;;;;;;;;;;7.60;99.90;;;;;;22873463;26;19928;-76
2024/04/20 10:55:22;;;;;;;;;;;8.10;99.90;;;;;;22878660;26;19927;-75
2024/04/20 11:05:22;;;;;;;;;;;8.60;99.90;;;;;;22873891;26;19939;-76
2024/04/20 11:15:23;;;;;;;;;;;9.40;99.90;;;;;;22873196;26;20012;-75
2024/04/20 11:25:24;;;;;;;;;;;9.50;99.90;;;;;;22873821;26;19959;-76
2024/04/20 11:35:26;;;;;;;;;;;8.90;99.90;;;;;;22733804;26;19928;-76
2024/04/20 11:45:26;;;;;;;;;;;9.20;99.90;;;;;;22718942;26;19939;-75
2024/04/20 11:55:27;;;;;;;;;;;10.40;99.90;;;;;;22835466;26;19991;-75
2024/04/20 12:05:29;;;;;;;;;;;9.80;99.90;;;;;;22783395;26;19928;-75
2024/04/20 12:15:30;;;;;;;;;;;11.20;99.90;;;;;;22720485;26;19935;-74
2024/04/20 12:25:30;;;;;;;;;;;11.40;99.90;;;;;;22717144;26;19928;-75
2024/04/20 12:35:37;;;;;;;;;;;9.50;99.90;;;;;;22753746;26;19927;-75
2024/04/20 12:45:38;;;;;;;;;;;9.40;99.90;;;;;;22866081;26;19934;-74
2024/04/20 12:55:38;;;;;;;;;;;10.10;99.90;;;;;;22867235;26;20359;-74
2024/04/20 13:05:39;;;;;;;;;;;11.70;99.90;;;;;;22866972;26;20002;-74
2024/04/20 13:15:40;;;;;;;;;;;10.80;99.90;;;;;;22881816;26;19995;-75
2024/04/20 13:25:45;;;;;;;;;;;11.70;99.90;;;;;;22851260;26;19927;-75
2024/04/20 13:35:52;;;;;;;;;;;12.70;99.90;;;;;;22883268;26;19940;-74
2024/04/20 13:45:53;;;;;;;;;;;11.10;99.90;;;;;;22884803;26;19927;-74
2024/04/20 13:55:54;;;;;;;;;;;11.30;99.90;;;;;;22844771;26;20358;-74
2024/04/20 14:05:55;;;;;;;;;;;10.50;99.90;;;;;;22737214;26;19992;-75
2024/04/20 14:15:58;;;;;;;;;;;10.30;99.90;;;;;;22825075;26;21746;-75
2024/04/20 14:26:00;;;;;;;;;;;10.50;99.90;;;;;;22819059;26;19939;-74
2024/04/20 14:36:02;;;;;;;;;;;10.10;99.90;;;;;;22811396;26;19979;-75
2024/04/20 14:46:03;;;;;;;;;;;10.70;99.90;;;;;;22776602;26;19997;-74
2024/04/20 14:56:04;;;;;;;;;;;9.80;99.90;;;;;;22748909;26;19939;-75
2024/04/20 15:06:05;;;;;;;;;;;9.70;99.90;;;;;;22834843;26;19932;-75
2024/04/20 15:16:06;;;;;;;;;;;10.00;99.90;;;;;;22870373;26;19952;-75
2024/04/20 15:26:06;;;;;;;;;;;9.90;99.90;;;;;;22826114;26;19927;-75
2024/04/20 15:36:07;;;;;;;;;;;11.20;99.90;;;;;;22743868;26;20399;-75
2024/04/20 15:46:08;;;;;;;;;;;12.00;99.90;;;;;;22791876;26;20382;-75
2024/04/20 15:56:09;;;;;;;;;;;11.80;99.90;;;;;;22780794;26;19928;-75
2024/04/20 16:06:11;;;;;;;;;;;12.10;99.90;;;;;;22809187;26;19994;-75
2024/04/20 16:16:11;;;;;;;;;;;11.20;99.90;;;;;;22862586;26;20436;-75
2024/04/20 16:26:12;;;;;;;;;;;11.10;99.90;;;;;;22861891;26;19977;-75
2024/04/20 16:36:13;;;;;;;;;;;11.40;99.90;;;;;;22782209;26;19928;-74
2024/04/20 16:46:14;;;;;;;;;;;10.10;99.90;;;;;;22831099;26;19928;-75
2024/04/20 16:56:15;;;;;;;;;;;9.70;99.90;;;;;;22759633;26;20371;-75
2024/04/20 17:06:16;;;;;;;;;;;9.50;99.90;;;;;;22824142;26;20260;-75
2024/04/20 17:16:19;;;;;;;;;;;9.40;99.90;;;;;;22874305;26;19927;-74
2024/04/20 17:26:25;;;;;;;;;;;8.60;99.90;;;;;;22859474;26;20380;-75
2024/04/20 17:36:28;;;;;;;;;;;8.80;99.90;;;;;;22727752;26;19938;-76
2024/04/20 17:46:29;;;;;;;;;;;8.40;99.90;;;;;;22859174;26;19978;-75
2024/04/20 17:56:30;;;;;;;;;;;8.10;99.90;;;;;;22723600;26;19928;-75
2024/04/20 18:06:31;;;;;;;;;;;7.40;99.90;;;;;;22731596;26;20391;-74
2024/04/20 18:16:31;;;;;;;;;;;7.30;99.90;;;;;;22854548;26;19934;-74
2024/04/20 18:26:33;;;;;;;;;;;7.00;99.90;;;;;;22795254;26;20385;-75
2024/04/20 18:36:34;;;;;;;;;;;6.80;99.90;;;;;;22665665;26;1689112;-75
2024/04/20 18:46:34;;;;;;;;;;;7.10;99.90;;;;;;22838188;26;19935;-76
2024/04/20 18:56:35;;;;;;;;;;;7.00;99.90;;;;;;22836443;26;19942;-73
2024/04/20 19:06:36;;;;;;;;;;;6.80;99.90;;;;;;22787734;26;20255;-75
2024/04/20 19:16:37;;;;;;;;;;;6.70;99.90;;;;;;22853866;26;20646;-76
2024/04/20 19:26:37;;;;;;;;;;;6.80;99.90;;;;;;22831509;26;19928;-75
2024/04/20 19:36:38;;;;;;;;;;;6.60;99.90;;;;;;22787411;26;20365;-75
2024/04/20 19:46:40;;;;;;;;;;;6.60;99.90;;;;;;22865515;26;19946;-75
2024/04/20 19:56:40;;;;;;;;;;;6.20;99.90;;;;;;22865587;26;19979;-76
2024/04/20 20:06:42;;;;;;;;;;;6.20;99.90;;;;;;22790738;26;19963;-75
2024/04/20 20:16:42;;;;;;;;;;;6.00;99.90;;;;;;22778857;26;20294;-76
2024/04/20 20:26:43;;;;;;;;;;;6.10;99.90;;;;;;22800762;26;19927;-77
2024/04/20 20:36:43;;;;;;;;;;;5.90;99.90;;;;;;22803069;26;19967;-76
2024/04/20 20:46:44;;;;;;;;;;;5.90;99.90;;;;;;22838838;26;20374;-76
2024/04/20 20:56:45;;;;;;;;;;;5.80;99.90;;;;;;22786497;26;19934;-76
2024/04/20 21:06:45;;;;;;;;;;;5.40;99.90;;;;;;22841999;26;19928;-76
2024/04/20 21:16:46;;;;;;;;;;;5.30;99.90;;;;;;22813380;26;20370;-75
2024/04/20 21:26:47;;;;;;;;;;;5.20;99.90;;;;;;22823784;26;19995;-73
2024/04/20 21:36:47;;;;;;;;;;;5.30;99.90;;;;;;22874576;26;20329;-76
2024/04/20 21:46:48;;;;;;;;;;;5.40;99.90;;;;;;22809543;26;19928;-75
2024/04/20 21:56:49;;;;;;;;;;;5.40;99.90;;;;;;22840160;26;19934;-75
2024/04/20 22:06:49;;;;;;;;;;;5.30;99.90;;;;;;22840068;26;20379;-75
2024/04/20 22:16:50;;;;;;;;;;;5.10;99.90;;;;;;22871194;26;19928;-75
2024/04/20 22:26:51;;;;;;;;;;;4.90;99.90;;;;;;22803685;26;20280;-75
2024/04/20 22:36:51;;;;;;;;;;;4.70;99.90;;;;;;22801142;25;19943;-75
2024/04/20 22:46:52;;;;;;;;;;;4.70;99.90;;;;;;22784697;26;19946;-75
2024/04/20 22:56:52;;;;;;;;;;;4.60;99.90;;;;;;22761560;26;19941;-75
2024/04/20 23:06:53;;;;;;;;;;;4.60;99.90;;;;;;22786235;26;20366;-75
2024/04/20 23:16:54;;;;;;;;;;;4.60;99.90;;;;;;22781525;26;19939;-75
2024/04/20 23:26:55;;;;;;;;;;;4.50;99.90;;;;;;22758735;26;19939;-75
2024/04/20 23:36:55;;;;;;;;;;;4.50;99.90;;;;;;22797173;26;19964;-75
2024/04/20 23:46:56;;;;;;;;;;;4.50;99.90;;;;;;22781097;26;20324;-75
2024/04/20 23:56:56;;;;;;;;;;;4.50;99.90;;;;;;22817269;26;20011;-75
